Time;durP1;ratioP1;P1;durP2;ratioP2;P2;SDS_P1;SDS_P2;PMS_P1;PMS_P2;Temp;Humidity;BMP_temperature;BMP_pressure;BME280_temperature;BME280_humidity;BME280_pressure;Samples;Min_cycle;Max_cycle;Signal;HPM_P1;HPM_P2
2023/01/09 00:00:25;;;;;;;3.20;2.90;;;7.40;99.90;;;;;;5013137;28;20421;-64
2023/01/09 00:02:53;;;;;;;3.97;2.78;;;7.40;99.90;;;;;;5013686;28;20428;-63
2023/01/09 00:05:20;;;;;;;3.53;2.90;;;7.40;99.90;;;;;;5013037;28;20420;-63
2023/01/09 00:07:47;;;;;;;3.30;2.80;;;7.30;99.90;;;;;;5013366;28;20897;-64
2023/01/09 00:10:14;;;;;;;4.07;2.90;;;7.30;99.90;;;;;;5012753;28;20427;-63
2023/01/09 00:12:41;;;;;;;3.50;2.83;;;7.30;99.90;;;;;;5012591;28;20431;-64
2023/01/09 00:15:09;;;;;;;3.10;2.75;;;7.30;99.90;;;;;;5012355;28;20437;-64
2023/01/09 00:17:37;;;;;;;3.72;2.90;;;7.40;99.90;;;;;;5013211;28;20427;-64
2023/01/09 00:20:06;;;;;;;3.40;3.05;;;7.40;99.90;;;;;;5013669;28;20424;-64
2023/01/09 00:22:33;;;;;;;3.35;3.05;;;7.40;99.90;;;;;;5013745;28;20420;-64
2023/01/09 00:24:59;;;;;;;3.80;2.90;;;7.40;99.90;;;;;;5012945;28;20427;-65
2023/01/09 00:27:26;;;;;;;3.92;2.90;;;7.40;99.90;;;;;;5015869;28;20793;-64
2023/01/09 00:29:53;;;;;;;3.67;3.00;;;7.40;99.90;;;;;;5016615;28;20445;-65
2023/01/09 00:32:20;;;;;;;4.40;2.83;;;7.40;99.90;;;;;;5017089;28;20505;-64
2023/01/09 00:34:48;;;;;;;3.33;2.60;;;7.40;99.90;;;;;;5016224;28;20428;-64
2023/01/09 00:37:14;;;;;;;3.33;3.03;;;7.40;99.90;;;;;;5016102;28;20415;-64
2023/01/09 00:39:42;;;;;;;3.30;2.80;;;7.50;99.90;;;;;;5016478;28;20417;-65
2023/01/09 00:42:15;;;;;;;2.72;2.50;;;7.50;99.90;;;;;;5016342;28;20420;-64
2023/01/09 00:44:46;;;;;;;3.40;2.78;;;7.50;99.90;;;;;;5016306;28;20423;-65
2023/01/09 00:47:17;;;;;;;2.90;2.35;;;7.50;99.90;;;;;;5016400;28;20416;-64
2023/01/09 00:49:46;;;;;;;3.20;2.40;;;7.50;99.90;;;;;;5016410;28;20460;-64
2023/01/09 00:52:15;;;;;;;3.50;2.23;;;7.50;99.90;;;;;;5016070;28;20424;-64
2023/01/09 00:54:43;;;;;;;2.30;2.10;;;7.60;99.90;;;;;;5015635;28;20423;-64
2023/01/09 00:57:12;;;;;;;2.97;2.10;;;7.60;99.90;;;;;;5015940;28;20424;-63
2023/01/09 00:59:39;;;;;;;2.63;1.92;;;7.70;99.90;;;;;;5016573;28;20420;-64
2023/01/09 01:02:06;;;;;;;2.28;1.90;;;7.70;99.90;;;;;;5016454;28;20409;-63
2023/01/09 01:10:03;;;;;;;2.10;1.90;;;7.70;99.90;;;;;;5019855;28;20441;-64
2023/01/09 01:12:30;;;;;;;3.13;1.92;;;7.80;99.90;;;;;;5017124;28;20420;-64
2023/01/09 01:14:57;;;;;;;3.20;2.10;;;7.80;99.90;;;;;;5015797;28;20416;-64
2023/01/09 01:17:23;;;;;;;3.45;2.25;;;7.80;99.90;;;;;;5015385;28;20444;-64
2023/01/09 01:19:50;;;;;;;2.80;2.10;;;7.80;99.90;;;;;;5015447;28;20412;-64
2023/01/09 01:22:18;;;;;;;2.85;1.90;;;7.80;99.90;;;;;;5015363;28;20408;-64
2023/01/09 01:24:45;;;;;;;2.30;2.10;;;7.80;99.90;;;;;;5014872;28;20441;-64
2023/01/09 01:27:12;;;;;;;3.70;2.10;;;7.80;99.90;;;;;;5015391;28;20896;-63
2023/01/09 01:29:38;;;;;;;2.03;1.83;;;7.80;99.90;;;;;;5018350;28;20416;-64
2023/01/09 01:32:05;;;;;;;3.50;2.10;;;7.80;99.90;;;;;;5019347;28;20432;-64
2023/01/09 01:34:32;;;;;;;1.70;1.50;;;7.80;99.90;;;;;;5020613;28;20504;-64
2023/01/09 01:36:59;;;;;;;3.22;2.15;;;7.80;99.90;;;;;;5020979;28;20766;-64
2023/01/09 01:39:27;;;;;;;2.63;1.90;;;7.80;99.90;;;;;;5020547;28;20416;-64
2023/01/09 01:41:53;;;;;;;3.53;2.10;;;7.80;99.90;;;;;;5019528;28;20421;-65
2023/01/09 01:44:57;;;;;;;3.80;1.95;;;7.80;99.90;;;;;;5014536;28;20808;-63
2023/01/09 01:47:30;;;;;;;2.40;1.80;;;7.80;99.90;;;;;;5014837;28;20478;-64
2023/01/09 01:49:58;;;;;;;2.53;1.90;;;7.80;99.90;;;;;;5015463;28;20424;-64
2023/01/09 01:52:25;;;;;;;3.15;2.20;;;7.70;99.90;;;;;;5014951;28;20421;-64
2023/01/09 01:54:55;;;;;;;2.38;1.70;;;7.70;99.90;;;;;;5014940;28;20738;-65
2023/01/09 01:57:21;;;;;;;2.70;1.83;;;7.70;99.90;;;;;;5015034;28;20428;-65
2023/01/09 01:59:51;;;;;;;4.07;2.30;;;7.80;99.90;;;;;;5015235;28;20454;-64
2023/01/09 02:02:20;;;;;;;3.65;1.90;;;7.80;99.90;;;;;;5023382;28;20412;-64
2023/01/09 02:04:50;;;;;;;2.20;1.70;;;7.70;99.90;;;;;;5016303;28;20412;-64
2023/01/09 02:07:17;;;;;;;2.72;1.80;;;7.70;99.90;;;;;;5016314;28;20927;-63
2023/01/09 02:09:45;;;;;;;3.20;1.80;;;7.70;99.90;;;;;;5015667;28;20417;-63
2023/01/09 02:12:18;;;;;;;3.50;1.70;;;7.70;99.90;;;;;;5014686;28;20420;-64
2023/01/09 02:14:47;;;;;;;3.97;1.70;;;7.70;99.90;;;;;;5014636;28;20466;-63
2023/01/09 02:17:26;;;;;;;2.00;1.80;;;7.70;99.90;;;;;;5014031;28;20443;-63
2023/01/09 02:20:27;;;;;;;2.45;1.98;;;7.70;99.90;;;;;;5014309;28;20438;-63
2023/01/09 02:23:14;;;;;;;2.60;2.00;;;7.60;99.90;;;;;;5014002;28;20432;-61
2023/01/09 02:26:01;;;;;;;3.17;1.80;;;7.60;99.90;;;;;;5014087;28;20424;-64
2023/01/09 02:28:55;;;;;;;2.55;2.00;;;7.60;99.90;;;;;;5014936;28;20420;-64
2023/01/09 02:31:32;;;;;;;2.28;1.70;;;7.60;99.90;;;;;;5014230;28;20428;-63
2023/01/09 02:34:07;;;;;;;2.85;2.08;;;7.60;99.90;;;;;;5014207;28;20431;-64
2023/01/09 02:36:43;;;;;;;3.50;2.10;;;7.60;99.90;;;;;;5013818;28;20477;-64
2023/01/09 02:39:26;;;;;;;2.45;1.90;;;7.60;99.90;;;;;;5013981;28;20417;-64
2023/01/09 02:42:00;;;;;;;2.67;2.00;;;7.60;99.90;;;;;;5013593;28;20908;-64
2023/01/09 02:44:30;;;;;;;3.47;2.20;;;7.60;99.90;;;;;;5013923;28;20478;-64
2023/01/09 02:47:03;;;;;;;3.40;2.00;;;7.60;99.90;;;;;;5014709;28;20431;-63
2023/01/09 02:49:30;;;;;;;3.25;2.10;;;7.60;99.90;;;;;;5012188;28;20424;-64
2023/01/09 02:52:08;;;;;;;3.63;2.10;;;7.60;99.90;;;;;;5013688;28;20428;-64
2023/01/09 02:54:49;;;;;;;3.67;2.28;;;7.60;99.90;;;;;;5013205;28;20762;-63
2023/01/09 02:57:30;;;;;;;2.20;2.00;;;7.60;99.90;;;;;;5013393;28;20436;-63
2023/01/09 03:00:07;;;;;;;2.40;2.20;;;7.60;99.90;;;;;;5013387;28;20457;-64
2023/01/09 03:02:47;;;;;;;2.13;1.73;;;7.60;99.90;;;;;;5012965;28;20908;-64
2023/01/09 03:05:20;;;;;;;2.78;1.77;;;7.60;99.90;;;;;;5013286;28;20417;-63
2023/01/09 03:07:56;;;;;;;2.17;1.80;;;7.60;99.90;;;;;;5013232;28;20470;-63
2023/01/09 03:10:29;;;;;;;2.50;1.70;;;7.60;99.90;;;;;;5013696;28;20770;-63
2023/01/09 03:12:57;;;;;;;2.67;2.00;;;7.60;99.90;;;;;;5012780;28;20885;-63
2023/01/09 03:15:28;;;;;;;2.42;2.00;;;7.60;99.90;;;;;;5013188;28;20423;-63
2023/01/09 03:17:57;;;;;;;2.70;2.00;;;7.60;99.90;;;;;;5013006;28;20433;-63
2023/01/09 03:20:27;;;;;;;2.70;2.05;;;7.60;99.90;;;;;;5013081;28;20423;-62
2023/01/09 03:22:56;;;;;;;2.47;2.28;;;7.60;99.90;;;;;;5013143;28;20778;-63
2023/01/09 03:25:23;;;;;;;3.05;2.40;;;7.60;99.90;;;;;;5012721;28;20421;-64
2023/01/09 03:27:52;;;;;;;2.87;2.20;;;7.60;99.90;;;;;;5012955;28;20916;-62
2023/01/09 03:30:19;;;;;;;2.83;2.40;;;7.60;99.90;;;;;;5013285;28;20423;-63
2023/01/09 03:32:46;;;;;;;2.63;2.30;;;7.60;99.90;;;;;;5013078;28;20423;-63
2023/01/09 03:35:14;;;;;;;3.00;2.38;;;7.70;99.90;;;;;;5013499;28;20421;-63
2023/01/09 03:37:41;;;;;;;2.97;2.55;;;7.60;99.90;;;;;;5013151;28;20431;-64
2023/01/09 03:40:10;;;;;;;2.90;2.17;;;7.70;99.90;;;;;;5013046;28;20432;-65
2023/01/09 03:42:37;;;;;;;4.10;2.30;;;7.60;99.90;;;;;;5013092;28;20421;-63
2023/01/09 03:45:05;;;;;;;3.47;2.25;;;7.60;99.90;;;;;;5012585;28;20894;-63
2023/01/09 03:47:31;;;;;;;3.40;2.10;;;7.60;99.90;;;;;;5012387;28;20881;-64
2023/01/09 03:49:58;;;;;;;3.78;2.10;;;7.60;99.90;;;;;;5012747;28;20417;-63
2023/01/09 03:52:26;;;;;;;4.00;2.40;;;7.70;99.90;;;;;;5012804;28;20420;-62
2023/01/09 03:54:53;;;;;;;4.23;1.73;;;7.70;99.90;;;;;;5012757;28;20453;-63
2023/01/09 03:57:20;;;;;;;2.20;1.90;;;7.70;99.90;;;;;;5012547;28;20436;-63
2023/01/09 03:59:46;;;;;;;2.15;1.90;;;7.70;99.90;;;;;;5012639;28;20840;-64
2023/01/09 04:02:13;;;;;;;1.83;1.63;;;7.70;99.90;;;;;;5012080;28;20421;-63
2023/01/09 04:04:40;;;;;;;1.90;1.60;;;7.70;99.90;;;;;;5016374;28;20447;-64
2023/01/09 04:07:07;;;;;;;2.40;1.80;;;7.70;99.90;;;;;;5020708;28;20539;-63
2023/01/09 04:10:56;;;;;;;2.15;1.70;;;7.60;99.90;;;;;;5111212;27;20342;-64
2023/01/09 04:13:23;;;;;;;2.97;1.80;;;7.70;99.90;;;;;;5110581;28;20408;-64
2023/01/09 04:15:50;;;;;;;2.50;1.80;;;7.70;99.90;;;;;;5110787;28;20947;-63
2023/01/09 04:18:16;;;;;;;2.10;1.90;;;7.70;99.90;;;;;;5111213;28;20416;-63
2023/01/09 04:20:47;;;;;;;3.63;2.00;;;7.70;99.90;;;;;;5111110;28;20444;-64
2023/01/09 04:23:14;;;;;;;2.50;2.10;;;7.70;99.90;;;;;;5122152;22;20485;-59
2023/01/09 04:25:40;;;;;;;2.30;2.00;;;7.70;99.90;;;;;;5069013;28;20413;-60
2023/01/09 04:28:09;;;;;;;3.10;1.63;;;7.70;99.90;;;;;;5068676;28;20431;-59
2023/01/09 04:30:35;;;;;;;1.90;1.70;;;7.70;99.90;;;;;;5068810;28;20428;-59
2023/01/09 04:33:02;;;;;;;1.73;1.55;;;7.70;99.90;;;;;;5068595;28;20404;-60
2023/01/09 04:35:29;;;;;;;1.73;1.60;;;7.70;99.90;;;;;;5068820;28;20423;-60
2023/01/09 04:37:55;;;;;;;2.90;1.90;;;7.60;99.90;;;;;;5068806;28;20419;-60
2023/01/09 04:40:22;;;;;;;2.80;1.70;;;7.60;99.90;;;;;;5068587;28;20420;-60
2023/01/09 04:42:49;;;;;;;1.80;1.60;;;7.60;99.90;;;;;;5068541;28;20424;-61
2023/01/09 04:45:17;;;;;;;3.03;1.90;;;7.60;99.90;;;;;;5068579;28;20412;-60
2023/01/09 04:47:44;;;;;;;2.30;1.90;;;7.60;99.90;;;;;;5068641;28;20424;-60
2023/01/09 04:50:12;;;;;;;3.00;2.00;;;7.50;99.90;;;;;;5068225;28;20460;-60
2023/01/09 04:52:39;;;;;;;2.30;1.80;;;7.50;99.90;;;;;;5068192;28;20454;-60
2023/01/09 04:55:07;;;;;;;1.90;1.50;;;7.50;99.90;;;;;;5068435;28;20424;-61
2023/01/09 04:57:34;;;;;;;2.05;1.42;;;7.50;99.90;;;;;;5068358;28;20427;-61
2023/01/09 05:00:01;;;;;;;2.38;1.55;;;7.50;99.90;;;;;;5068385;28;20405;-60
2023/01/09 05:02:30;;;;;;;3.40;2.10;;;7.50;99.90;;;;;;5068039;28;20417;-60
2023/01/09 05:04:57;;;;;;;2.15;1.30;;;7.50;99.90;;;;;;5068806;28;20412;-61
2023/01/09 05:07:24;;;;;;;1.40;0.95;;;7.50;99.90;;;;;;5069311;28;20417;-61
2023/01/09 05:09:51;;;;;;;1.27;0.93;;;7.50;99.90;;;;;;5068188;28;20432;-60
2023/01/09 05:12:17;;;;;;;2.30;1.10;;;7.50;99.90;;;;;;5068023;28;20413;-59
2023/01/09 05:14:44;;;;;;;1.30;0.95;;;7.50;99.90;;;;;;5067503;28;20430;-59
2023/01/09 05:17:11;;;;;;;1.38;0.90;;;7.50;99.90;;;;;;5067996;28;20415;-60
2023/01/09 05:19:39;;;;;;;2.60;1.10;;;7.50;99.90;;;;;;5065662;28;20424;-61
2023/01/09 05:22:06;;;;;;;2.03;0.70;;;7.50;99.90;;;;;;5054652;28;20437;-60
2023/01/09 05:24:32;;;;;;;1.30;0.85;;;7.50;99.90;;;;;;5054195;28;20436;-59
2023/01/09 05:27:01;;;;;;;1.10;0.73;;;7.40;99.90;;;;;;5053944;28;20512;-61
2023/01/09 05:29:28;;;;;;;1.50;0.90;;;7.40;99.90;;;;;;5054325;28;20944;-60
2023/01/09 05:31:55;;;;;;;1.90;0.90;;;7.40;99.90;;;;;;5054453;28;20496;-59
2023/01/09 05:34:22;;;;;;;0.93;0.80;;;7.40;99.90;;;;;;5055621;28;20758;-58
2023/01/09 05:36:50;;;;;;;2.08;1.00;;;7.40;99.90;;;;;;5055102;28;20437;-63
2023/01/09 05:39:17;;;;;;;1.38;1.00;;;7.40;99.90;;;;;;5054611;28;20439;-61
2023/01/09 05:41:47;;;;;;;2.50;1.10;;;7.40;99.90;;;;;;5054814;28;20471;-59
2023/01/09 05:44:13;;;;;;;2.50;1.20;;;7.40;99.90;;;;;;5053949;28;20433;-60
2023/01/09 05:46:40;;;;;;;1.70;1.42;;;7.40;99.90;;;;;;5053825;28;20433;-59
2023/01/09 05:49:10;;;;;;;1.90;1.70;;;7.40;99.90;;;;;;5054985;28;20425;-60
2023/01/09 05:51:37;;;;;;;1.67;1.58;;;7.40;99.90;;;;;;5051907;28;20430;-61
2023/01/09 05:54:06;;;;;;;2.33;1.83;;;7.40;99.90;;;;;;5055387;28;20440;-61
2023/01/09 05:56:33;;;;;;;2.35;2.08;;;7.40;99.90;;;;;;5056694;28;20428;-59
2023/01/09 05:58:59;;;;;;;2.10;1.90;;;7.40;99.90;;;;;;5054846;28;20453;-60
2023/01/09 06:01:26;;;;;;;2.40;1.77;;;7.30;99.90;;;;;;5054931;28;20438;-61
2023/01/09 06:03:53;;;;;;;2.30;2.10;;;7.30;99.90;;;;;;5054499;28;20928;-60
2023/01/09 06:06:20;;;;;;;2.10;1.90;;;7.30;99.90;;;;;;5055734;28;20423;-62
2023/01/09 06:08:46;;;;;;;2.80;2.00;;;7.30;99.90;;;;;;5054878;28;20427;-61
2023/01/09 06:11:14;;;;;;;3.80;2.10;;;7.30;99.90;;;;;;5053859;28;21043;-61
2023/01/09 06:13:41;;;;;;;3.42;2.50;;;7.40;99.90;;;;;;5053667;28;20427;-61
2023/01/09 06:16:08;;;;;;;3.20;2.50;;;7.40;99.90;;;;;;5048922;28;20438;-61
2023/01/09 06:18:35;;;;;;;3.00;2.80;;;7.30;99.90;;;;;;5049424;28;20437;-60
2023/01/09 06:21:01;;;;;;;3.00;2.70;;;7.40;99.90;;;;;;5050242;28;20429;-61
2023/01/09 06:23:28;;;;;;;3.08;2.85;;;7.40;99.90;;;;;;5052744;28;20417;-60
2023/01/09 06:25:55;;;;;;;3.10;2.80;;;7.40;99.90;;;;;;5051110;28;20505;-60
2023/01/09 06:28:23;;;;;;;4.57;3.03;;;7.40;99.90;;;;;;5050528;28;20520;-61
2023/01/09 06:30:51;;;;;;;3.40;3.10;;;7.30;99.90;;;;;;5050008;28;20429;-62
2023/01/09 06:33:18;;;;;;;3.30;3.00;;;7.30;99.90;;;;;;5049178;28;20809;-61
2023/01/09 06:35:45;;;;;;;3.97;3.58;;;7.30;99.90;;;;;;5052529;28;20417;-60
2023/01/09 06:38:12;;;;;;;3.85;3.45;;;7.20;99.90;;;;;;5053104;28;20424;-61
2023/01/09 06:40:41;;;;;;;3.90;3.60;;;7.20;99.90;;;;;;5055610;28;20469;-60
2023/01/09 06:43:08;;;;;;;4.80;3.90;;;7.20;99.90;;;;;;5045992;28;20775;-60
2023/01/09 06:45:36;;;;;;;4.03;3.63;;;7.10;99.90;;;;;;5044791;28;20445;-60
2023/01/09 06:48:03;;;;;;;5.45;4.60;;;7.00;99.90;;;;;;5048827;28;20436;-60
2023/01/09 06:50:29;;;;;;;5.18;4.40;;;7.00;99.90;;;;;;5044098;28;20543;-60
2023/01/09 06:52:56;;;;;;;5.35;4.40;;;7.00;99.90;;;;;;5045838;28;20433;-61
2023/01/09 06:55:25;;;;;;;5.60;4.60;;;6.90;99.90;;;;;;5045373;28;20927;-60
2023/01/09 06:57:51;;;;;;;6.18;5.57;;;6.90;99.90;;;;;;5052613;28;20417;-60
2023/01/09 07:00:19;;;;;;;8.35;5.70;;;6.80;99.90;;;;;;5052931;28;20420;-59
2023/01/09 07:02:47;;;;;;;8.68;5.20;;;6.80;99.90;;;;;;5053887;28;20789;-61
2023/01/09 07:05:14;;;;;;;7.07;5.65;;;6.70;99.90;;;;;;5051992;28;20416;-59
2023/01/09 07:07:41;;;;;;;5.80;5.00;;;6.60;99.90;;;;;;5054217;28;20428;-60
2023/01/09 07:10:10;;;;;;;6.95;5.25;;;6.60;99.90;;;;;;5053602;28;20456;-61
2023/01/09 07:12:36;;;;;;;7.82;6.10;;;6.60;99.90;;;;;;5053068;28;20913;-61
2023/01/09 07:15:04;;;;;;;10.07;6.13;;;6.50;99.90;;;;;;5053443;28;20424;-64
2023/01/09 07:17:31;;;;;;;7.07;5.87;;;6.50;99.90;;;;;;5053680;28;20417;-60
2023/01/09 07:19:59;;;;;;;6.57;5.80;;;6.40;99.90;;;;;;5053265;28;20940;-60
2023/01/09 07:22:26;;;;;;;8.15;6.40;;;6.40;99.90;;;;;;5052600;28;20413;-61
2023/01/09 07:24:53;;;;;;;8.80;6.43;;;6.30;99.90;;;;;;5052011;28;20483;-61
2023/01/09 07:27:20;;;;;;;8.25;6.72;;;6.30;99.90;;;;;;5052471;28;20504;-62
2023/01/09 07:29:47;;;;;;;9.27;7.28;;;6.30;99.90;;;;;;5051227;28;20455;-60
2023/01/09 07:32:13;;;;;;;9.83;6.60;;;6.20;99.90;;;;;;5050708;28;20431;-61
2023/01/09 07:34:41;;;;;;;9.05;7.13;;;6.20;99.90;;;;;;5052318;28;20910;-61
2023/01/09 07:37:09;;;;;;;9.50;6.60;;;6.10;99.90;;;;;;5055513;28;20901;-62
2023/01/09 07:39:36;;;;;;;8.13;6.60;;;6.10;99.90;;;;;;5055220;28;20413;-61
2023/01/09 07:42:02;;;;;;;7.95;6.97;;;6.20;99.90;;;;;;5055062;28;20499;-61
2023/01/09 07:44:40;;;;;;;7.18;6.20;;;6.10;99.90;;;;;;5057211;28;20418;-63
2023/01/09 07:47:08;;;;;;;9.20;6.70;;;6.10;99.90;;;;;;5053642;28;20421;-61
2023/01/09 07:49:34;;;;;;;10.40;6.97;;;6.10;99.90;;;;;;5053019;28;20424;-62
2023/01/09 07:52:02;;;;;;;8.90;6.40;;;6.10;99.90;;;;;;5052524;28;20417;-62
2023/01/09 07:54:30;;;;;;;9.55;7.20;;;6.10;99.90;;;;;;5052730;28;20421;-61
2023/01/09 07:56:57;;;;;;;10.55;7.18;;;6.10;99.90;;;;;;5052398;28;20421;-61
2023/01/09 07:59:28;;;;;;;10.95;7.55;;;6.00;99.90;;;;;;5051725;28;20476;-61
2023/01/09 08:01:55;;;;;;;9.82;7.38;;;6.00;99.90;;;;;;5052533;28;20413;-59
2023/01/09 08:04:22;;;;;;;11.50;8.55;;;6.00;99.90;;;;;;5051623;28;20912;-62
2023/01/09 08:06:49;;;;;;;11.02;8.00;;;5.90;99.90;;;;;;5052287;28;20416;-60
2023/01/09 08:09:15;;;;;;;11.32;8.85;;;5.90;99.90;;;;;;5052552;28;20444;-62
2023/01/09 08:11:43;;;;;;;11.73;8.52;;;5.90;99.90;;;;;;5052272;28;20432;-62
2023/01/09 08:14:10;;;;;;;12.38;7.90;;;6.00;99.90;;;;;;5052144;28;20445;-62
2023/01/09 08:16:37;;;;;;;11.48;7.88;;;6.00;99.90;;;;;;5052509;28;20421;-62
2023/01/09 08:19:06;;;;;;;10.70;8.18;;;6.00;99.90;;;;;;5051855;28;20417;-63
2023/01/09 08:21:33;;;;;;;11.55;8.73;;;6.00;99.90;;;;;;5052204;28;20417;-64
2023/01/09 08:24:00;;;;;;;11.90;9.13;;;6.10;99.90;;;;;;5051786;28;20413;-61
2023/01/09 08:26:26;;;;;;;12.40;9.70;;;6.10;99.90;;;;;;5052617;28;20413;-62
2023/01/09 08:28:54;;;;;;;10.95;8.20;;;6.10;99.90;;;;;;5052151;28;20441;-62
2023/01/09 08:31:21;;;;;;;10.75;8.50;;;6.10;99.90;;;;;;5051568;28;20425;-63
2023/01/09 08:33:48;;;;;;;11.00;8.43;;;6.10;99.90;;;;;;5051745;28;20424;-62
2023/01/09 08:36:15;;;;;;;11.13;8.00;;;6.20;99.90;;;;;;5053073;28;20417;-69
2023/01/09 08:38:42;;;;;;;10.07;8.15;;;6.20;99.90;;;;;;5054398;28;20421;-69
2023/01/09 08:49:21;;;;;;;8.93;6.18;;;6.50;99.90;;;;;;5051726;28;20425;-68
2023/01/09 08:51:48;;;;;;;8.52;5.60;;;6.60;99.90;;;;;;5052420;28;20425;-69
2023/01/09 08:54:15;;;;;;;10.20;6.53;;;6.60;99.90;;;;;;5052189;28;20500;-67
2023/01/09 08:56:41;;;;;;;9.05;6.10;;;6.70;99.90;;;;;;5054661;28;20413;-73
2023/01/09 08:59:10;;;;;;;9.73;6.25;;;6.80;99.90;;;;;;5055505;28;20429;-69
2023/01/09 09:01:38;;;;;;;7.90;5.10;;;6.80;99.90;;;;;;5055217;28;20412;-68
2023/01/09 09:04:05;;;;;;;6.38;5.30;;;6.80;99.90;;;;;;5055042;28;20449;-69
2023/01/09 09:06:32;;;;;;;8.05;5.00;;;6.80;99.90;;;;;;5056505;28;20413;-69
2023/01/09 09:09:02;;;;;;;6.38;5.05;;;6.90;99.90;;;;;;5057693;28;20413;-69
2023/01/09 09:11:29;;;;;;;5.80;4.60;;;6.90;99.90;;;;;;5057353;28;20988;-69
2023/01/09 09:13:56;;;;;;;6.38;4.60;;;6.90;99.90;;;;;;5057668;28;20420;-68
2023/01/09 09:16:23;;;;;;;8.63;4.90;;;6.90;99.90;;;;;;5057251;28;20420;-69
2023/01/09 09:18:51;;;;;;;6.43;3.55;;;6.90;99.90;;;;;;5056738;28;20417;-69
2023/01/09 09:21:19;;;;;;;5.93;3.70;;;7.00;99.90;;;;;;5056376;28;20419;-67
2023/01/09 09:23:46;;;;;;;6.95;3.60;;;7.00;99.90;;;;;;5055777;28;20508;-67
2023/01/09 09:26:13;;;;;;;10.50;3.63;;;7.10;99.90;;;;;;5056393;28;20413;-69
2023/01/09 09:28:39;;;;;;;11.60;3.97;;;7.20;99.90;;;;;;5055952;28;20418;-67
2023/01/09 09:31:07;;;;;;;9.55;3.40;;;7.20;99.90;;;;;;5055286;28;20433;-68
2023/01/09 09:33:33;;;;;;;8.40;3.47;;;7.30;99.90;;;;;;5054665;28;20418;-68
2023/01/09 09:36:01;;;;;;;5.82;2.80;;;7.40;99.90;;;;;;5054155;28;20797;-68
2023/01/09 09:38:28;;;;;;;4.73;2.90;;;7.40;99.90;;;;;;5054841;28;20421;-67
2023/01/09 09:44:43;;;;;;;4.07;2.50;;;7.50;99.90;;;;;;5053792;28;20781;-68
2023/01/09 09:47:21;;;;;;;8.30;2.90;;;7.50;99.90;;;;;;5054412;28;20413;-68
2023/01/09 09:49:57;;;;;;;9.27;2.88;;;7.50;99.90;;;;;;5054062;28;20440;-67
2023/01/09 09:52:34;;;;;;;4.20;2.20;;;7.60;99.90;;;;;;5054845;28;20432;-70
2023/01/09 09:55:11;;;;;;;5.07;2.60;;;7.70;99.90;;;;;;5054809;28;20475;-68
2023/01/09 09:57:38;;;;;;;6.38;2.35;;;7.80;99.90;;;;;;5054415;28;20458;-68
2023/01/09 10:00:07;;;;;;;3.93;2.20;;;7.90;99.90;;;;;;5054027;28;20482;-69
2023/01/09 10:02:45;;;;;;;3.95;2.00;;;8.00;99.90;;;;;;5054160;28;20496;-68
2023/01/09 10:05:18;;;;;;;6.80;2.28;;;8.00;99.90;;;;;;5054139;28;20417;-67
2023/01/09 10:07:49;;;;;;;4.25;2.60;;;8.00;99.90;;;;;;5055301;28;20814;-67
2023/01/09 10:10:27;;;;;;;6.47;2.03;;;8.00;99.90;;;;;;5056079;28;20448;-62
2023/01/09 10:12:56;;;;;;;4.70;2.00;;;7.90;99.90;;;;;;5056383;28;20432;-62
2023/01/09 10:15:32;;;;;;;6.72;2.20;;;7.90;99.90;;;;;;5056623;28;20421;-62
2023/01/09 10:18:11;;;;;;;3.42;1.70;;;7.80;99.90;;;;;;5055053;28;20920;-60
2023/01/09 10:20:59;;;;;;;3.63;1.83;;;7.80;99.90;;;;;;5054284;28;20428;-61
2023/01/09 10:23:53;;;;;;;3.92;1.60;;;7.80;99.90;;;;;;5054319;28;20456;-61
2023/01/09 10:26:25;;;;;;;3.57;1.80;;;7.80;99.90;;;;;;5056107;28;20833;-62
2023/01/09 10:29:06;;;;;;;6.30;2.05;;;7.90;99.90;;;;;;5053926;28;20474;-61
2023/01/09 10:31:40;;;;;;;2.13;1.80;;;7.90;99.90;;;;;;5053027;28;20481;-60
2023/01/09 10:34:17;;;;;;;3.10;1.70;;;8.00;99.90;;;;;;5053181;28;20988;-61
2023/01/09 10:36:57;;;;;;;3.50;1.73;;;8.10;99.90;;;;;;5043730;28;20432;-62
2023/01/09 10:39:33;;;;;;;5.65;2.33;;;8.10;99.90;;;;;;5070890;23;20473;-62
2023/01/09 10:42:09;;;;;;;5.85;2.92;;;8.10;99.90;;;;;;5032467;28;20430;-63
2023/01/09 10:44:42;;;;;;;4.30;2.40;;;8.10;99.90;;;;;;5033547;28;20993;-64
2023/01/09 10:47:15;;;;;;;4.13;1.92;;;8.20;99.90;;;;;;5033938;28;20456;-63
2023/01/09 10:49:42;;;;;;;5.70;2.42;;;8.20;99.90;;;;;;5033842;28;20497;-64
2023/01/09 10:52:15;;;;;;;5.90;2.00;;;8.30;99.90;;;;;;5033992;28;20927;-65
2023/01/09 10:54:55;;;;;;;3.42;1.90;;;8.40;99.90;;;;;;5025761;28;20432;-65
2023/01/09 10:57:40;;;;;;;4.90;2.30;;;8.40;99.90;;;;;;5030219;28;20445;-66
2023/01/09 11:00:14;;;;;;;4.00;1.70;;;8.40;99.90;;;;;;5015767;28;20501;-65
2023/01/09 11:02:42;;;;;;;3.72;1.70;;;8.50;99.90;;;;;;5031001;28;20425;-66
2023/01/09 11:05:14;;;;;;;3.28;1.77;;;8.50;99.90;;;;;;5013633;28;20971;-66
2023/01/09 11:07:45;;;;;;;3.40;1.65;;;8.50;99.90;;;;;;5013925;28;20444;-66
2023/01/09 11:10:15;;;;;;;4.35;1.80;;;8.50;99.90;;;;;;5013085;28;20836;-66
2023/01/09 11:12:42;;;;;;;4.43;2.20;;;8.50;99.90;;;;;;5014164;28;20539;-65
2023/01/09 11:15:28;;;;;;;3.70;1.92;;;8.60;99.90;;;;;;5014722;28;20464;-66
2023/01/09 11:18:16;;;;;;;3.60;1.50;;;8.70;99.90;;;;;;5014878;28;20511;-67
2023/01/09 11:20:43;;;;;;;5.35;2.15;;;8.70;99.90;;;;;;5015464;28;20512;-65
2023/01/09 11:23:28;;;;;;;3.90;1.42;;;8.80;99.90;;;;;;5014560;28;20844;-66
2023/01/09 11:25:57;;;;;;;5.10;2.50;;;8.80;99.90;;;;;;5013726;28;20515;-67
2023/01/09 11:28:25;;;;;;;2.67;1.40;;;8.90;99.90;;;;;;5013778;28;20416;-68
2023/01/09 11:30:54;;;;;;;4.63;1.40;;;8.90;99.90;;;;;;5014096;28;20417;-66
2023/01/09 11:33:24;;;;;;;2.75;1.30;;;8.90;99.90;;;;;;5014369;28;20466;-66
2023/01/09 11:36:04;;;;;;;3.05;1.52;;;8.80;99.90;;;;;;5014193;28;20424;-68
2023/01/09 11:38:44;;;;;;;3.63;1.60;;;8.90;99.90;;;;;;5014557;28;20477;-67
2023/01/09 11:41:17;;;;;;;6.47;2.08;;;8.90;99.90;;;;;;5014407;28;20447;-65
2023/01/09 11:43:46;;;;;;;2.60;1.50;;;8.90;99.90;;;;;;5015443;28;20439;-66
2023/01/09 11:46:30;;;;;;;3.63;1.63;;;8.90;99.90;;;;;;5017661;28;20784;-66
2023/01/09 11:48:59;;;;;;;3.60;1.87;;;9.00;99.90;;;;;;5014139;28;20429;-66
2023/01/09 11:51:27;;;;;;;3.30;1.40;;;9.10;99.90;;;;;;5014456;28;20424;-67
2023/01/09 11:54:17;;;;;;;5.25;1.70;;;9.20;99.90;;;;;;5014698;28;20413;-66
2023/01/09 11:56:46;;;;;;;3.25;1.50;;;9.30;99.90;;;;;;5016582;28;20427;-66
2023/01/09 11:59:15;;;;;;;2.15;1.20;;;9.40;99.90;;;;;;5014855;28;20928;-67
2023/01/09 12:02:02;;;;;;;3.20;1.20;;;9.50;99.90;;;;;;5014371;28;20499;-65
2023/01/09 12:04:34;;;;;;;3.30;1.52;;;9.60;99.90;;;;;;5014323;28;20420;-67
2023/01/09 12:07:30;;;;;;;3.10;1.20;;;9.70;99.90;;;;;;5015186;28;20417;-67
2023/01/09 12:10:06;;;;;;;2.40;1.60;;;9.70;99.90;;;;;;5007189;28;20893;-67
2023/01/09 12:12:45;;;;;;;2.67;1.20;;;9.80;99.90;;;;;;5014010;28;20428;-67
2023/01/09 12:15:26;;;;;;;1.98;1.23;;;10.00;99.90;;;;;;5014132;28;20747;-68
2023/01/09 12:18:24;;;;;;;2.50;1.00;;;10.00;99.90;;;;;;5013576;28;20424;-66
2023/01/09 12:21:12;;;;;;;3.60;1.45;;;10.10;99.90;;;;;;4992233;28;20436;-65
2023/01/09 12:23:55;;;;;;;4.43;1.70;;;10.10;99.90;;;;;;5014661;28;20777;-67
2023/01/09 12:26:24;;;;;;;3.13;1.70;;;10.10;99.90;;;;;;5013711;28;20409;-65
2023/01/09 12:29:11;;;;;;;2.75;1.00;;;10.10;99.90;;;;;;5013296;28;20515;-66
2023/01/09 12:31:56;;;;;;;3.83;1.30;;;10.10;99.90;;;;;;5015317;28;20802;-67
2023/01/09 12:34:42;;;;;;;4.57;1.50;;;10.10;99.90;;;;;;5017383;28;20420;-66
2023/01/09 12:37:29;;;;;;;2.58;0.98;;;10.00;99.90;;;;;;5017563;28;20442;-66
2023/01/09 12:40:04;;;;;;;2.40;1.00;;;9.90;99.90;;;;;;5016785;28;20417;-66
2023/01/09 12:42:43;;;;;;;2.60;1.50;;;9.80;99.90;;;;;;5016976;28;20480;-66
2023/01/09 12:45:28;;;;;;;3.60;1.20;;;9.80;99.90;;;;;;5016635;28;20471;-67
2023/01/09 12:48:04;;;;;;;4.50;1.50;;;9.70;99.90;;;;;;5017480;28;20427;-67
2023/01/09 12:50:43;;;;;;;3.83;1.60;;;9.70;99.90;;;;;;5016643;28;20988;-67
2023/01/09 12:53:17;;;;;;;3.17;1.30;;;9.70;99.90;;;;;;5016869;28;20439;-67
2023/01/09 12:55:49;;;;;;;2.90;1.00;;;9.70;99.90;;;;;;5017137;28;20425;-65
2023/01/09 12:58:27;;;;;;;1.85;1.10;;;9.60;99.90;;;;;;5016962;28;20488;-66
2023/01/09 13:00:56;;;;;;;2.83;1.13;;;9.60;99.90;;;;;;5016992;28;20451;-66
2023/01/09 13:03:28;;;;;;;4.80;1.20;;;9.60;99.90;;;;;;5017150;28;20754;-66
2023/01/09 13:05:57;;;;;;;2.80;1.00;;;9.60;99.90;;;;;;5016528;28;20420;-67
2023/01/09 13:08:29;;;;;;;2.72;1.50;;;9.60;99.90;;;;;;5016276;28;20416;-67
2023/01/09 13:11:01;;;;;;;3.90;1.20;;;9.60;99.90;;;;;;5015904;28;20423;-66
2023/01/09 13:13:34;;;;;;;2.37;1.37;;;9.60;99.90;;;;;;5016209;28;20451;-66
2023/01/09 13:16:08;;;;;;;3.15;1.30;;;9.60;99.90;;;;;;5016130;28;20401;-65
2023/01/09 13:18:41;;;;;;;2.30;1.30;;;9.60;99.90;;;;;;5016019;28;20544;-65
2023/01/09 13:21:09;;;;;;;1.70;1.10;;;9.60;99.90;;;;;;5022734;28;20434;-67
2023/01/09 13:23:44;;;;;;;3.35;1.05;;;9.60;99.90;;;;;;5030646;28;20426;-67
2023/01/09 13:26:16;;;;;;;2.65;1.60;;;9.50;99.90;;;;;;5032291;28;20446;-65
2023/01/09 13:28:46;;;;;;;2.60;1.52;;;9.50;99.90;;;;;;5028154;28;20488;-65
2023/01/09 13:31:31;;;;;;;3.92;1.90;;;9.40;99.90;;;;;;5028519;28;20435;-68